Terminal Aerodrome Forecast
Issued by NWS

Home | Current Version | Previous Version | Text Only | Print | Product List | Glossary On
Versions: 1 2 3 4 5 6 7 8 9 10 11 12 13 14 15 16
000
FTUS45 KSLC 201734
TAFBCE
TAF
KBCE 201734Z 2018/2118 14013KT P6SM SKC
     FM201900 20016G24KT P6SM SKC
     FM210200 19010G16KT P6SM SKC
     FM211600 19020G30KT P6SM SKC=

USA.gov is the U.S. government's official web portal to all federal, state and local government web resources and services.